Santiago, MN

7:04 AM CST on December 07, 2016 (GMT -0600)
RAWS | | Change Station

Elev 1001 ft 45.53 °N, 93.75 °W | Updated 44 minutes ago

Overcast
Overcast
15.0 °F
Feels Like 0 °F
N
15.0
Wind Variable Wind from WSW
Gusts 27.0 mph

Today
High -- | Low -- °F
--% Chance of Precip.
Yesterday
High -- | Low -- °F
Precip. -- in
Pressure 29.92 in
Visibility 10.0 miles
Clouds Overcast 3700 ft
Windchill 0 °F
Dew Point 8.0 °F
Humidity 73%
Rainfall in
Snow Depth Not available.
7:41 AM 4:31 PM
First Quarter, 52% visible
METAR KPNM 071254Z AUTO 25015G25KT 10SM OVC037 M08/M13 A2992 RMK AO2
Pressure 29.92 in
Visibility 10.0 miles
Clouds Overcast 3700 ft
Windchill 0 °F
Dew Point 8.0 °F
Humidity 73%
Rainfall in
Snow Depth Not available.
7:41 AM 4:31 PM
First Quarter, 52% visible
METAR KPNM 071254Z AUTO 25015G25KT 10SM OVC037 M08/M13 A2992 RMK AO2

10-Day Weather Forecast

Almanac

Astronomy

Dec. 07, 2016 Rise Set
Actual Time
Civil Twilight
Nautical Twilight
Astronomical Twilight
Moon
Length of Visible Light
Length of Day
Tomorrow will be .
, % of the Moon is Illuminated

Today's Extremes

State Highs State Lows

Community

WunderPhotos

Upload Photos

1,956,112 photos uploaded!

WunderBlog® & News

Nearby

Air Quality

  Air Quality AQ Index Pollutant
Not available.

Snow Depth

Station Depth Elevation

Earthquake Activity

City Distance Mag. Time & Date
Minimum magnitude displayed is 2.5.

Coastal Water Temperatures

Place Temperature

Stations

Nearby Weather Stations

Station Location Temp. Windchill Dew Point Humidity Wind Precip. Elev Updated Type
                   

Watches & Warnings

There are currently no watches in effect.